createdAt,value
2023-09-29T00:02:15.039Z,82.49
2023-09-29T00:07:17.482Z,82.53
2023-09-29T00:12:20.209Z,82.60
2023-09-29T00:17:22.126Z,82.47
2023-09-29T00:22:24.085Z,82.44
2023-09-29T00:27:26.164Z,82.52
2023-09-29T00:32:28.125Z,82.51
2023-09-29T00:37:30.520Z,82.56
2023-09-29T00:42:33.204Z,82.51
2023-09-29T00:47:37.525Z,82.39
2023-09-29T00:52:41.886Z,82.27
2023-09-29T00:57:49.275Z,82.30
2023-09-29T01:02:51.545Z,82.25
2023-09-29T01:07:53.833Z,82.30
2023-09-29T01:12:55.785Z,82.36
2023-09-29T01:17:57.851Z,82.60
2023-09-29T01:23:02.396Z,82.77
2023-09-29T01:28:06.656Z,82.70
2023-09-29T01:33:09.615Z,82.81
2023-09-29T01:38:11.548Z,83.03
2023-09-29T01:43:13.403Z,82.99
2023-09-29T01:48:15.393Z,82.86
2023-09-29T01:53:18.049Z,82.54
2023-09-29T01:58:21.456Z,82.47
2023-09-29T02:03:23.718Z,82.52
2023-09-29T02:08:27.038Z,82.48
2023-09-29T02:13:28.949Z,82.41
2023-09-29T02:18:31.102Z,82.59
2023-09-29T02:23:34.971Z,82.83
2023-09-29T02:28:37.534Z,83.04
2023-09-29T02:33:41.975Z,83.07
2023-09-29T02:38:43.901Z,83.09
2023-09-29T02:43:45.813Z,83.05
2023-09-29T02:48:48.273Z,82.99
2023-09-29T02:53:51.606Z,82.87
2023-09-29T02:58:56.003Z,82.83
2023-09-29T03:04:00.239Z,82.56
2023-09-29T03:09:03.021Z,82.48
2023-09-29T03:14:05.627Z,82.65
2023-09-29T03:19:09.610Z,82.78
2023-09-29T03:24:11.546Z,82.88
2023-09-29T03:29:13.455Z,83.03
2023-09-29T03:34:15.754Z,83.17
2023-09-29T03:39:19.669Z,83.19
2023-09-29T03:44:22.575Z,83.19
2023-09-29T03:49:24.677Z,83.21
2023-09-29T03:54:27.038Z,83.25
2023-09-29T03:59:29.036Z,83.25
2023-09-29T04:04:32.172Z,83.22
2023-09-29T04:09:34.439Z,83.06
2023-09-29T04:14:36.409Z,82.94
2023-09-29T04:19:39.664Z,83.02
2023-09-29T04:24:41.571Z,83.02
2023-09-29T04:29:43.505Z,83.00
2023-09-29T04:34:46.447Z,82.96
2023-09-29T04:39:48.428Z,83.03
2023-09-29T04:44:50.323Z,82.80
2023-09-29T04:49:52.250Z,82.91
2023-09-29T04:54:54.592Z,83.11
2023-09-29T04:59:56.616Z,83.26
2023-09-29T05:04:58.501Z,83.44
2023-09-29T05:10:00.639Z,83.60
2023-09-29T05:15:03.282Z,83.66
2023-09-29T05:20:06.626Z,83.74
2023-09-29T05:25:09.745Z,83.79
2023-09-29T05:30:13.607Z,83.75
2023-09-29T05:35:15.560Z,83.63
2023-09-29T05:40:17.690Z,83.43
2023-09-29T05:45:21.242Z,83.20
2023-09-29T05:50:23.150Z,82.99
2023-09-29T05:55:25.320Z,82.76
2023-09-29T06:00:27.731Z,82.49
2023-09-29T06:05:31.037Z,82.23
2023-09-29T06:10:33.176Z,81.87
2023-09-29T06:15:35.040Z,81.42
2023-09-29T06:20:36.927Z,80.80
2023-09-29T06:25:38.901Z,80.26
2023-09-29T06:30:40.907Z,79.82
2023-09-29T06:35:43.339Z,79.19
2023-09-29T06:40:45.395Z,78.78
2023-09-29T06:50:52.455Z,77.34
2023-09-29T06:55:55.495Z,75.87
2023-09-29T07:01:02.074Z,75.53
2023-09-29T07:06:04.674Z,74.07
2023-09-29T07:11:06.736Z,73.31
2023-09-29T07:16:09.110Z,71.64
2023-09-29T07:21:11.009Z,71.01
2023-09-29T07:26:13.373Z,70.86
2023-09-29T07:31:15.330Z,70.29
2023-09-29T07:36:17.523Z,70.06
2023-09-29T07:41:19.512Z,69.80
2023-09-29T07:46:21.587Z,68.66
2023-09-29T07:51:26.198Z,68.07
2023-09-29T07:56:28.221Z,67.39
2023-09-29T08:01:30.490Z,67.64
2023-09-29T08:06:32.306Z,67.21
2023-09-29T08:11:34.668Z,66.55
2023-09-29T08:16:37.489Z,65.55
2023-09-29T08:21:40.384Z,65.05
2023-09-29T08:26:42.879Z,63.34
2023-09-29T08:31:45.150Z,63.56
2023-09-29T08:36:47.255Z,63.19
2023-09-29T08:41:57.405Z,61.42
2023-09-29T08:47:02.499Z,62.19
2023-09-29T08:52:05.685Z,61.51
2023-09-29T08:57:08.976Z,60.12
2023-09-29T09:02:11.257Z,59.62
2023-09-29T09:07:14.247Z,59.66
2023-09-29T09:12:18.409Z,59.81
2023-09-29T09:17:20.574Z,59.16
2023-09-29T09:22:38.708Z,58.68
2023-09-29T09:27:42.729Z,59.62
2023-09-29T09:32:44.949Z,58.85
2023-09-29T09:37:52.578Z,57.80
2023-09-29T09:42:55.320Z,57.13
2023-09-29T09:48:01.036Z,57.54
2023-09-29T09:53:09.213Z,55.83
2023-09-29T09:58:14.644Z,55.56
2023-09-29T10:03:18.242Z,55.21
2023-09-29T10:08:32.439Z,54.16
2023-09-29T10:13:39.371Z,53.03
2023-09-29T10:18:42.039Z,52.78
2023-09-29T10:23:51.867Z,52.65
2023-09-29T10:29:02.299Z,51.94
2023-09-29T10:34:04.470Z,50.84
2023-09-29T10:39:06.491Z,51.33
2023-09-29T10:44:08.652Z,50.72
2023-09-29T10:49:11.323Z,49.08
2023-09-29T10:54:13.582Z,48.97
2023-09-29T10:59:15.444Z,48.28
2023-09-29T11:04:17.589Z,48.15
2023-09-29T11:09:29.829Z,46.25
2023-09-29T11:14:39.830Z,45.88
2023-09-29T11:19:55.781Z,45.37
2023-09-29T11:24:58.326Z,46.17
2023-09-29T11:30:02.332Z,45.78
2023-09-29T11:35:04.410Z,45.19
2023-09-29T11:40:12.803Z,45.73
2023-09-29T11:45:14.945Z,45.99
2023-09-29T11:50:16.926Z,45.87
2023-09-29T11:55:18.890Z,45.52
2023-09-29T12:00:20.752Z,45.35
2023-09-29T12:05:22.805Z,45.25
2023-09-29T12:10:24.721Z,44.75
2023-09-29T12:15:27.188Z,43.93
2023-09-29T12:20:29.821Z,44.62
2023-09-29T12:25:32.510Z,44.25
2023-09-29T12:30:34.737Z,44.10
2023-09-29T12:35:36.629Z,43.42
2023-09-29T12:40:38.572Z,44.26
2023-09-29T12:45:40.391Z,44.48
2023-09-29T12:50:42.636Z,43.88
2023-09-29T12:55:44.677Z,43.66
2023-09-29T13:00:46.740Z,43.89
2023-09-29T13:05:49.162Z,44.38
2023-09-29T13:10:51.382Z,44.67
2023-09-29T13:15:53.846Z,44.85
2023-09-29T13:20:56.479Z,43.90
2023-09-29T13:25:58.565Z,43.70
2023-09-29T13:31:02.786Z,44.04
2023-09-29T13:36:05.172Z,43.69
2023-09-29T13:41:07.337Z,43.28
2023-09-29T13:46:09.689Z,42.75
2023-09-29T13:51:12.036Z,42.63
2023-09-29T13:56:14.793Z,42.71
2023-09-29T14:01:22.915Z,43.23
2023-09-29T14:06:25.136Z,42.68
2023-09-29T14:11:27.451Z,42.81
2023-09-29T14:16:30.124Z,42.49
2023-09-29T14:21:32.119Z,42.66
2023-09-29T14:26:34.659Z,42.60
2023-09-29T14:31:36.656Z,42.72
2023-09-29T14:36:38.498Z,43.44
2023-09-29T14:41:40.391Z,44.07
2023-09-29T14:46:42.821Z,44.12
2023-09-29T14:51:44.639Z,43.81
2023-09-29T14:56:46.469Z,43.95
2023-09-29T15:01:48.936Z,44.52
2023-09-29T15:06:50.878Z,44.87
2023-09-29T15:11:52.869Z,45.79
2023-09-29T15:16:54.838Z,46.31
2023-09-29T15:21:57.448Z,46.74
2023-09-29T15:27:05.133Z,47.27
2023-09-29T15:32:20.707Z,47.69
2023-09-29T15:37:22.650Z,48.16
2023-09-29T15:42:25.351Z,48.71
2023-09-29T15:47:27.405Z,49.27
2023-09-29T15:52:29.378Z,49.98
2023-09-29T15:57:31.542Z,50.48
2023-09-29T16:02:33.400Z,50.92
2023-09-29T16:07:35.895Z,51.53
2023-09-29T16:12:37.747Z,51.79
2023-09-29T16:17:40.114Z,52.18
2023-09-29T16:22:41.969Z,52.67
2023-09-29T16:27:43.890Z,52.92
2023-09-29T16:32:45.855Z,53.32
2023-09-29T16:37:47.756Z,53.66
2023-09-29T16:42:49.551Z,53.83
2023-09-29T16:47:52.019Z,54.53
2023-09-29T16:52:53.896Z,55.32
2023-09-29T16:57:56.047Z,56.12
2023-09-29T17:02:58.087Z,56.40
2023-09-29T17:08:01.733Z,57.14
2023-09-29T17:13:04.784Z,57.53
2023-09-29T17:18:07.028Z,57.90
2023-09-29T17:23:10.028Z,58.89
2023-09-29T17:28:14.570Z,59.50
2023-09-29T17:33:17.711Z,59.63
2023-09-29T17:38:19.765Z,59.52
2023-09-29T17:43:21.691Z,59.79
2023-09-29T17:48:40.884Z,60.01
2023-09-29T17:53:46.370Z,60.61
2023-09-29T17:58:48.764Z,61.81
2023-09-29T18:03:50.724Z,62.16
2023-09-29T18:08:53.043Z,63.05
2023-09-29T18:13:58.116Z,63.72
2023-09-29T18:19:01.804Z,63.26
2023-09-29T18:24:06.817Z,62.89
2023-09-29T18:29:10.292Z,62.67
2023-09-29T18:34:12.992Z,62.28
2023-09-29T18:39:15.839Z,62.29
2023-09-29T18:44:18.083Z,62.06
2023-09-29T18:49:20.099Z,62.16
2023-09-29T18:54:24.668Z,62.01
2023-09-29T18:59:30.352Z,62.50
2023-09-29T19:04:35.595Z,62.65
2023-09-29T19:09:39.316Z,62.40
2023-09-29T19:14:41.409Z,62.71
2023-09-29T19:19:43.426Z,62.53
2023-09-29T19:24:46.503Z,62.49
2023-09-29T19:29:50.635Z,62.47
2023-09-29T19:34:53.016Z,62.54
2023-09-29T19:39:54.879Z,62.67
2023-09-29T19:44:57.419Z,62.77
2023-09-29T19:50:01.205Z,62.93
2023-09-29T19:55:04.559Z,63.31
2023-09-29T20:00:07.116Z,63.52
2023-09-29T20:05:17.850Z,63.75
2023-09-29T20:10:20.154Z,64.10
2023-09-29T20:15:22.002Z,64.43
2023-09-29T20:20:23.949Z,64.72
2023-09-29T20:25:26.247Z,64.94
2023-09-29T20:30:28.507Z,65.39
2023-09-29T20:35:31.562Z,65.36
2023-09-29T20:40:33.450Z,65.62
2023-09-29T20:45:35.942Z,65.07
2023-09-29T20:50:39.112Z,65.86
2023-09-29T20:55:41.048Z,65.88
2023-09-29T21:00:43.100Z,65.48
2023-09-29T21:05:45.098Z,65.59
2023-09-29T21:11:01.631Z,66.10
2023-09-29T21:16:07.586Z,66.47
2023-09-29T21:21:09.567Z,66.45
2023-09-29T21:26:15.874Z,66.79
2023-09-29T21:31:22.663Z,67.95
2023-09-29T21:36:24.780Z,67.97
2023-09-29T21:41:26.602Z,68.67
2023-09-29T21:46:34.447Z,68.38
2023-09-29T21:51:40.391Z,67.82
2023-09-29T21:56:42.620Z,68.50
2023-09-29T22:01:44.672Z,70.20
2023-09-29T22:06:46.544Z,70.92
2023-09-29T22:11:48.607Z,71.14
2023-09-29T22:16:50.527Z,71.44
2023-09-29T22:21:56.132Z,71.54
2023-09-29T22:26:58.070Z,71.34
2023-09-29T22:32:00.702Z,71.48
2023-09-29T22:37:02.617Z,71.18
2023-09-29T22:42:04.508Z,70.93
2023-09-29T22:47:06.756Z,70.28
2023-09-29T22:52:08.642Z,70.57
2023-09-29T22:57:10.550Z,70.50
2023-09-29T23:02:12.749Z,70.93
2023-09-29T23:07:14.712Z,70.75
2023-09-29T23:12:19.647Z,70.37
2023-09-29T23:17:21.724Z,70.39
2023-09-29T23:22:23.725Z,70.10
2023-09-29T23:27:25.683Z,70.19
2023-09-29T23:32:29.098Z,70.15
2023-09-29T23:37:31.411Z,69.88
2023-09-29T23:42:33.773Z,69.84
2023-09-29T23:47:36.347Z,69.78
2023-09-29T23:52:38.907Z,69.64
2023-09-29T23:57:41.160Z,69.50
